Time;durP1;ratioP1;P1;durP2;ratioP2;P2;SDS_P1;SDS_P2;PMS_P1;PMS_P2;Temp;Humidity;BMP_temperature;BMP_pressure;BME280_temperature;BME280_humidity;BME280_pressure;Samples;Min_cycle;Max_cycle;Signal;HPM_P1;HPM_P2
2022/10/05 00:00:43;;;;;;;27.98;16.48;;;;;;;5.37;100.00;99885.40;4117199;85;21004;-85
2022/10/05 00:07:11;;;;;;;28.65;16.07;;;;;;;5.33;100.00;99885.00;4130864;85;22009;-85
2022/10/05 00:13:20;;;;;;;26.50;14.73;;;;;;;5.27;100.00;99882.20;4126574;85;21050;-85
2022/10/05 00:19:34;;;;;;;25.17;14.85;;;;;;;5.20;100.00;99880.54;4129518;85;21531;-85
2022/10/05 00:25:38;;;;;;;24.77;14.98;;;;;;;5.19;100.00;99875.66;4115476;86;21027;-85
2022/10/05 00:31:48;;;;;;;29.02;14.55;;;;;;;5.17;100.00;99868.97;4128366;85;21062;-86
2022/10/05 00:37:57;;;;;;;22.37;12.20;;;;;;;5.14;100.00;99865.53;4110896;85;21058;-86
2022/10/05 00:44:42;;;;;;;24.87;13.53;;;;;;;5.18;100.00;99865.13;4025432;87;21071;-85
2022/10/05 00:51:26;;;;;;;14.47;10.03;;;;;;;5.19;100.00;99862.09;4045369;87;21093;-86
2022/10/05 00:58:17;;;;;;;23.47;12.90;;;;;;;5.19;100.00;99863.45;4011465;87;21024;-85
2022/10/05 01:04:53;;;;;;;30.00;14.68;;;;;;;5.36;100.00;99863.45;4053409;87;21075;-86
2022/10/05 01:11:10;;;;;;;35.35;15.88;;;;;;;5.39;100.00;99856.02;3970826;88;21133;-85
2022/10/05 01:17:29;;;;;;;25.48;13.75;;;;;;;5.36;100.00;99872.95;3883961;90;21111;-86
2022/10/05 01:24:15;;;;;;;24.57;14.83;;;;;;;5.26;100.00;99869.77;3969857;88;21063;-86
2022/10/05 01:30:22;;;;;;;26.00;13.75;;;;;;;4.98;100.00;99859.73;3975912;88;21091;-85
2022/10/05 01:36:52;;;;;;;22.35;12.40;;;;;;;4.93;100.00;99848.25;3893221;90;21749;-85
2022/10/05 01:43:12;;;;;;;23.18;11.97;;;;;;;4.86;100.00;99847.36;4031585;86;21089;-85
2022/10/05 01:50:03;;;;;;;19.67;12.65;;;;;;;4.71;100.00;99845.10;4026396;87;21538;-85
2022/10/05 01:56:31;;;;;;;27.52;13.65;;;;;;;4.71;100.00;99847.81;4005497;86;21537;-86
2022/10/05 02:02:43;;;;;;;27.02;14.33;;;;;;;4.69;100.00;99841.35;4122947;85;21099;-86
2022/10/05 02:16:25;;;;;;;26.15;12.78;;;;;;;4.53;100.00;99820.40;4189405;85;20973;-86
2022/10/05 02:22:48;;;;;;;21.02;12.23;;;;;;;4.42;100.00;99820.44;4047833;86;21079;-86
2022/10/05 02:29:01;;;;;;;23.27;14.03;;;;;;;4.30;100.00;99837.88;4124511;85;21503;-86
2022/10/05 02:35:16;;;;;;;23.12;13.95;;;;;;;4.40;100.00;99843.80;4124991;85;21595;-85
2022/10/05 02:49:11;;;;;;;23.18;13.20;;;;;;;4.33;100.00;99824.50;4026198;87;21071;-86
2022/10/05 02:55:55;;;;;;;24.50;13.45;;;;;;;4.24;100.00;99816.09;3932108;88;21014;-85
2022/10/05 03:02:41;;;;;;;19.50;12.85;;;;;;;4.12;100.00;99803.70;3989493;88;22040;-86
2022/10/05 03:09:01;;;;;;;25.10;13.90;;;;;;;4.13;100.00;99805.28;3908311;87;21095;-85
2022/10/05 03:15:23;;;;;;;22.73;13.72;;;;;;;4.14;100.00;99796.03;3955611;88;21142;-85
2022/10/05 03:21:54;;;;;;;22.40;11.75;;;;;;;4.08;100.00;99793.23;4028816;86;21546;-86
2022/10/05 03:28:43;;;;;;;21.85;13.78;;;;;;;4.04;100.00;99807.95;3864014;90;21160;-86
2022/10/05 03:35:16;;;;;;;21.65;12.35;;;;;;;4.02;100.00;99806.12;3748743;92;21046;-86
2022/10/05 03:41:50;;;;;;;21.42;11.57;;;;;;;4.00;100.00;99798.05;3965870;86;21014;-85
2022/10/05 03:48:30;;;;;;;22.75;14.25;;;;;;;4.00;100.00;99823.78;4118569;86;20948;-86
2022/10/05 03:55:22;;;;;;;20.43;12.45;;;;;;;3.96;100.00;99846.63;4065250;86;21614;-86
2022/10/05 04:14:48;;;;;;;23.80;12.58;;;;;;;4.02;100.00;99863.02;4000090;89;21116;-85
2022/10/05 04:21:18;;;;;;;22.93;13.53;;;;;;;3.97;100.00;99827.12;4137832;86;20971;-86
2022/10/05 04:27:43;;;;;;;28.85;16.48;;;;;;;3.97;100.00;99813.57;4064870;86;21526;-86
2022/10/05 04:33:54;;;;;;;17.02;11.08;;;;;;;4.03;100.00;99779.81;3956424;88;34667;-85
2022/10/05 04:47:43;;;;;;;27.62;14.23;;;;;;;4.11;100.00;99793.41;4044954;86;21022;-85
2022/10/05 05:00:45;;;;;;;23.25;14.10;;;;;;;4.24;100.00;99810.13;4049008;88;21026;-83
2022/10/05 05:07:38;;;;;;;28.17;13.62;;;;;;;4.20;100.00;99798.84;4049065;88;21054;-85
2022/10/05 05:36:01;;;;;;;25.62;14.00;;;;;;;3.88;100.00;99807.33;4049059;86;22056;-85
2022/10/05 05:49:23;;;;;;;25.43;15.25;;;;;;;4.01;100.00;99803.73;4012882;87;21521;-85
2022/10/05 05:55:47;;;;;;;27.17;17.98;;;;;;;4.17;100.00;99814.38;4013405;87;21629;-85
2022/10/05 06:02:09;;;;;;;29.85;17.48;;;;;;;4.34;100.00;99794.91;4028625;87;20971;-85
2022/10/05 06:08:52;;;;;;;30.10;17.80;;;;;;;4.71;100.00;99778.66;4036394;88;20979;-86
2022/10/05 06:15:28;;;;;;;88.78;32.75;;;;;;;5.08;100.00;99769.89;3927793;89;21576;-85
2022/10/05 06:22:22;;;;;;;42.00;21.75;;;;;;;5.30;100.00;99798.77;3989315;89;21078;-86
2022/10/05 06:57:16;;;;;;;25.13;15.70;;;;;;;7.12;100.00;99826.77;3882051;91;28637;-86
2022/10/05 07:10:28;;;;;;;25.50;13.55;;;;;;;8.15;100.00;99808.84;3956665;88;21704;-86
2022/10/05 07:17:16;;;;;;;20.45;12.30;;;;;;;8.52;100.00;99816.52;3960701;88;21008;-86
2022/10/05 07:23:29;;;;;;;;;;;;;;;8.89;100.00;99830.36;3948348;88;21050;-86
2022/10/05 07:30:02;;;;;;;19.10;12.30;;;;;;;9.35;100.00;99833.33;3912059;90;20122;-86
2022/10/05 07:43:09;;;;;;;15.58;7.72;;;;;;;10.49;100.00;99791.45;3997929;87;21015;-86
2022/10/05 07:49:46;;;;;;;8.60;5.20;;;;;;;10.84;100.00;99787.59;4021406;87;20988;-87
2022/10/05 08:03:08;;;;;;;7.00;3.22;;;;;;;11.55;100.00;99793.99;4007982;89;21024;-86
2022/10/05 08:16:21;;;;;;;5.58;3.30;;;;;;;12.07;100.00;99798.34;4007728;87;21047;-87
2022/10/05 08:22:48;;;;;;;7.20;3.80;;;;;;;12.52;100.00;99803.02;4001900;87;22040;-87
2022/10/05 08:29:42;;;;;;;4.95;2.52;;;;;;;13.14;100.00;99779.03;4011551;87;21495;-86
2022/10/05 08:35:54;;;;;;;7.00;3.60;;;;;;;14.00;100.00;99790.05;3917370;89;21165;-88
2022/10/05 08:42:36;;;;;;;7.65;4.10;;;;;;;14.86;100.00;99782.73;4006922;87;21076;-87
2022/10/05 08:49:22;;;;;;;9.63;3.25;;;;;;;15.74;100.00;99793.61;4012752;86;20999;-87
2022/10/05 08:55:48;;;;;;;7.40;4.00;;;;;;;16.66;100.00;99800.08;4009865;89;21055;-88
2022/10/05 09:02:00;;;;;;;4.62;2.55;;;;;;;17.48;100.00;99805.05;4008291;87;21110;-89
2022/10/05 09:08:43;;;;;;;3.15;2.20;;;;;;;17.26;98.41;99811.81;4010953;87;21025;-86
2022/10/05 09:15:30;;;;;;;4.60;2.40;;;;;;;16.86;97.43;99795.70;4013312;86;21544;-88
2022/10/05 09:21:43;;;;;;;3.70;2.10;;;;;;;16.73;96.24;99787.03;4013246;86;21020;-86
2022/10/05 09:27:56;;;;;;;5.92;2.30;;;;;;;16.75;95.85;99790.78;3985559;87;21102;-86
2022/10/05 09:34:43;;;;;;;3.47;2.47;;;;;;;16.86;95.13;99804.00;4013128;87;21667;-87
2022/10/05 09:41:10;;;;;;;4.77;2.20;;;;;;;16.78;94.26;99813.49;4009292;87;21043;-86
2022/10/05 09:47:49;;;;;;;7.47;3.37;;;;;;;16.75;93.54;99807.38;4012567;87;21043;-86
2022/10/05 09:54:34;;;;;;;4.05;2.47;;;;;;;17.18;93.35;99799.98;4008108;86;21474;-86
2022/10/05 10:01:07;;;;;;;4.42;2.20;;;;;;;17.57;91.55;99796.33;4012263;87;21024;-86
2022/10/05 10:07:32;;;;;;;3.55;2.20;;;;;;;17.53;90.00;99801.88;4006449;87;21023;-86
2022/10/05 10:13:46;;;;;;;4.97;2.47;;;;;;;17.66;89.19;99791.14;4013207;87;21062;-86
2022/10/05 10:20:37;;;;;;;4.40;2.20;;;;;;;17.82;88.67;99795.62;4003645;87;21063;-86
2022/10/05 10:26:58;;;;;;;12.63;5.92;;;;;;;17.87;87.94;99792.42;4016022;87;21018;-87
2022/10/05 10:33:20;;;;;;;5.33;2.98;;;;;;;18.04;87.35;99790.91;4006942;87;21720;-88
2022/10/05 10:39:30;;;;;;;5.33;3.37;;;;;;;18.16;87.08;99773.83;4014753;87;20972;-87
2022/10/05 10:45:59;;;;;;;5.30;3.08;;;;;;;18.10;85.73;99779.59;4010981;87;21012;-87
2022/10/05 10:52:33;;;;;;;11.05;6.85;;;;;;;18.02;84.79;99783.62;4011790;87;21009;-86
2022/10/05 10:59:15;;;;;;;4.87;3.65;;;;;;;18.19;84.36;99788.84;3993945;87;21054;-87
2022/10/05 11:05:58;;;;;;;6.45;2.50;;;;;;;18.48;84.14;99788.84;4010914;87;21079;-87
2022/10/05 11:12:29;;;;;;;4.50;2.72;;;;;;;18.70;84.07;99790.23;4008105;87;21078;-87
2022/10/05 11:19:09;;;;;;;6.85;3.02;;;;;;;18.77;82.46;99783.25;3996736;87;21078;-87
2022/10/05 11:25:51;;;;;;;4.60;2.30;;;;;;;18.79;82.38;99788.39;4006731;87;21993;-86
2022/10/05 11:32:28;;;;;;;4.90;2.35;;;;;;;18.76;81.08;99778.11;4009713;87;21913;-87
2022/10/05 11:38:45;;;;;;;6.97;2.70;;;;;;;18.60;80.75;99776.66;4028116;87;21102;-87
2022/10/05 11:45:11;;;;;;;8.70;2.95;;;;;;;18.52;80.58;99774.36;4007857;87;22158;-86
2022/10/05 11:51:24;;;;;;;6.77;2.80;;;;;;;18.46;80.10;99778.16;4010924;87;21610;-87
2022/10/05 11:58:06;;;;;;;11.25;2.90;;;;;;;18.41;80.03;99770.30;4014761;86;21043;-88
2022/10/05 12:04:16;;;;;;;7.20;2.80;;;;;;;18.40;80.25;99770.09;4011413;87;21091;-88
2022/10/05 12:10:38;;;;;;;6.92;2.98;;;;;;;18.36;79.35;99775.45;3907680;89;21182;-87
2022/10/05 12:16:51;;;;;;;6.22;2.72;;;;;;;18.31;79.83;99766.18;3907595;88;21964;-87
2022/10/05 12:23:07;;;;;;;5.15;2.75;;;;;;;18.35;79.88;99760.03;3837834;91;21113;-87
2022/10/05 12:29:43;;;;;;;7.75;3.65;;;;;;;18.39;80.02;99754.67;3838433;91;21122;-88
2022/10/05 12:35:50;;;;;;;4.17;2.43;;;;;;;18.42;80.85;99751.08;3829945;91;21069;-87
2022/10/05 12:42:12;;;;;;;3.55;2.35;;;;;;;18.45;80.88;99746.10;3913444;89;21131;-87
2022/10/05 12:48:35;;;;;;;6.83;2.33;;;;;;;18.39;80.72;99746.36;3851182;91;21082;-88
2022/10/05 12:54:56;;;;;;;3.67;1.65;;;;;;;18.45;81.74;99746.10;4015565;87;21067;-87
2022/10/05 13:01:09;;;;;;;3.20;1.85;;;;;;;18.37;79.24;99743.78;4021025;87;21033;-87
2022/10/05 13:07:28;;;;;;;3.77;1.87;;;;;;;18.25;78.05;99732.59;4023259;87;22105;-87
2022/10/05 13:14:11;;;;;;;3.47;2.00;;;;;;;18.30;77.90;99710.57;4022747;87;21643;-88
2022/10/05 13:20:23;;;;;;;4.60;1.90;;;;;;;18.22;77.59;99718.75;4021058;86;22262;-87
2022/10/05 13:26:33;;;;;;;6.25;2.30;;;;;;;18.10;77.39;99722.79;4000138;87;21131;-87
2022/10/05 13:32:48;;;;;;;4.12;1.82;;;;;;;18.04;77.80;99709.19;4001053;87;20996;-87
2022/10/05 13:39:28;;;;;;;2.15;1.90;;;;;;;18.00;77.14;99714.56;4024853;87;21011;-88
2022/10/05 13:45:43;;;;;;;3.52;1.95;;;;;;;18.00;76.34;99708.44;4022917;87;21143;-86
2022/10/05 13:52:07;;;;;;;6.12;2.17;;;;;;;17.92;75.62;99709.68;3933514;89;21007;-88
2022/10/05 13:58:38;;;;;;;2.67;1.82;;;;;;;17.83;75.14;99698.28;4031201;87;21536;-86
2022/10/05 14:04:50;;;;;;;4.12;1.80;;;;;;;17.72;74.73;99698.94;4024408;87;21059;-86
2022/10/05 14:11:18;;;;;;;3.95;2.35;;;;;;;17.62;74.31;99702.55;4026777;87;21059;-86
2022/10/05 14:17:33;;;;;;;4.53;2.60;;;;;;;17.49;74.46;99701.47;4028034;87;21106;-87
2022/10/05 14:23:35;;;;;;;3.02;2.10;;;;;;;17.42;74.50;99695.13;4025033;87;21082;-86
2022/10/05 14:29:37;;;;;;;4.28;2.60;;;;;;;17.32;74.96;99685.69;3972151;87;21519;-86
2022/10/05 14:35:51;;;;;;;4.08;2.80;;;;;;;17.19;75.08;99668.75;4020426;87;21147;-87
2022/10/05 14:41:53;;;;;;;6.62;2.72;;;;;;;17.10;75.78;99664.25;3915244;88;21008;-87
2022/10/05 14:48:04;;;;;;;7.50;3.00;;;;;;;17.01;75.60;99663.11;3870849;90;21007;-86
2022/10/05 14:54:43;;;;;;;4.65;3.15;;;;;;;16.93;75.79;99658.20;3899121;90;21027;-87
2022/10/05 15:01:12;;;;;;;3.62;2.60;;;;;;;16.86;76.00;99665.75;3914986;89;21034;-86
2022/10/05 15:07:31;;;;;;;4.45;2.95;;;;;;;16.77;76.41;99657.09;3866449;90;21130;-86
2022/10/05 15:13:40;;;;;;;6.28;3.42;;;;;;;16.65;76.56;99655.54;3897748;90;21074;-87
2022/10/05 15:19:51;;;;;;;7.08;4.50;;;;;;;16.54;77.33;99647.07;3875634;91;21014;-86
2022/10/05 15:26:44;;;;;;;5.05;3.70;;;;;;;16.34;78.01;99650.84;3934072;89;21932;-84
2022/10/05 15:33:06;;;;;;;8.83;3.30;;;;;;;16.20;78.35;99637.64;3870793;90;21046;-87
2022/10/05 15:39:33;;;;;;;7.12;4.08;;;;;;;16.03;78.91;99633.72;3896729;90;20983;-87
2022/10/05 15:45:40;;;;;;;10.00;4.45;;;;;;;15.87;79.63;99640.81;3922805;89;21040;-86
2022/10/05 15:51:57;;;;;;;8.15;4.50;;;;;;;15.73;80.29;99639.42;3904952;91;21032;-87
2022/10/05 15:58:31;;;;;;;6.37;4.17;;;;;;;15.56;80.64;99631.34;3905612;89;21083;-86
2022/10/05 16:04:52;;;;;;;15.40;10.93;;;;;;;15.33;81.31;99639.16;3922209;89;21138;-86
2022/10/05 16:10:56;;;;;;;16.82;10.32;;;;;;;15.10;82.12;99636.72;4068793;87;21052;-86
2022/10/05 16:17:35;;;;;;;17.00;8.63;;;;;;;14.88;82.83;99632.89;4059847;86;20986;-87
2022/10/05 16:24:18;;;;;;;58.85;27.80;;;;;;;14.65;83.80;99634.58;4022840;87;21046;-86
2022/10/05 16:30:22;;;;;;;27.58;12.63;;;;;;;14.19;84.53;99620.51;4027887;87;21027;-86
2022/10/05 16:36:31;;;;;;;20.80;10.40;;;;;;;14.09;85.29;99608.83;4024069;88;21456;-86
2022/10/05 16:42:56;;;;;;;13.58;7.05;;;;;;;13.96;85.94;99612.28;4025930;87;21134;-86
2022/10/05 16:49:26;;;;;;;17.30;6.97;;;;;;;13.75;86.46;99621.77;4010955;88;20992;-86
2022/10/05 16:55:39;;;;;;;11.38;7.15;;;;;;;13.54;87.25;99618.24;4038706;86;20975;-86
2022/10/05 17:02:23;;;;;;;11.33;6.95;;;;;;;13.36;87.97;99609.63;3924092;87;10000298;-86
2022/10/05 17:08:57;;;;;;;13.18;7.08;;;;;;;13.21;88.69;99607.88;4007866;87;21019;-86
2022/10/05 17:15:27;;;;;;;12.05;7.55;;;;;;;12.99;89.17;99606.84;4029912;87;22010;-86
2022/10/05 17:21:38;;;;;;;15.00;8.53;;;;;;;12.84;89.76;99611.98;4030766;87;21034;-86
2022/10/05 17:27:59;;;;;;;9.70;6.87;;;;;;;12.78;90.38;99609.33;4034562;88;21043;-86
2022/10/05 17:34:25;;;;;;;16.12;8.93;;;;;;;12.68;90.85;99603.91;4006094;88;21091;-87
2022/10/05 17:40:38;;;;;;;17.25;9.90;;;;;;;12.56;90.98;99601.42;4031176;87;21112;-86
2022/10/05 17:47:02;;;;;;;20.90;9.70;;;;;;;12.41;91.41;99591.43;4029622;87;21055;-86
2022/10/05 18:00:10;;;;;;;21.93;12.03;;;;;;;12.01;92.58;99589.87;4031984;88;21055;-85
2022/10/05 18:06:28;;;;;;;21.93;12.10;;;;;;;11.96;92.95;99586.09;4017785;87;21011;-86
2022/10/05 18:12:51;;;;;;;22.93;11.80;;;;;;;11.85;93.92;99588.45;4007166;88;21015;-85
2022/10/05 18:18:57;;;;;;;19.95;12.60;;;;;;;11.72;93.87;99587.06;4014815;87;21070;-86
2022/10/05 18:25:04;;;;;;;23.07;12.93;;;;;;;11.61;94.30;99592.92;4077730;87;21448;-86
2022/10/05 18:31:48;;;;;;;24.15;14.85;;;;;;;11.51;94.70;99594.94;4077437;87;20974;-86
2022/10/05 18:38:08;;;;;;;27.93;15.40;;;;;;;11.43;95.01;99595.39;4029534;87;21576;-86
2022/10/05 18:44:20;;;;;;;33.28;18.20;;;;;;;11.35;95.41;99595.06;4030619;87;21038;-86
2022/10/05 18:50:50;;;;;;;41.68;20.68;;;;;;;11.26;95.50;99596.45;4029099;88;21032;-86
2022/10/05 18:56:52;;;;;;;29.32;17.23;;;;;;;11.13;95.77;99601.31;4030385;88;21082;-85
2022/10/05 19:03:03;;;;;;;32.50;14.55;;;;;;;10.98;95.90;99599.45;4028627;87;21007;-86
2022/10/05 19:09:24;;;;;;;26.35;13.83;;;;;;;10.88;96.34;99615.12;4028807;87;21027;-86
2022/10/05 19:15:36;;;;;;;29.15;17.80;;;;;;;10.78;96.50;99617.05;4028254;87;21122;-87
2022/10/05 19:21:44;;;;;;;38.55;17.27;;;;;;;10.62;96.59;99616.33;4031002;86;21003;-86
2022/10/05 19:27:56;;;;;;;32.78;19.52;;;;;;;10.57;97.29;99625.63;4029168;87;21007;-86
2022/10/05 19:34:39;;;;;;;36.17;21.02;;;;;;;10.38;97.58;99620.72;3920337;89;21049;-85
2022/10/05 19:40:49;;;;;;;45.92;22.10;;;;;;;10.38;98.02;99625.60;4025119;87;21531;-86
2022/10/05 19:47:08;;;;;;;40.48;22.00;;;;;;;10.37;98.20;99629.50;4023634;87;21627;-86
2022/10/05 19:53:16;;;;;;;39.15;21.70;;;;;;;10.35;98.41;99626.31;4023521;87;21019;-85
2022/10/05 19:59:25;;;;;;;35.08;22.37;;;;;;;10.32;98.68;99637.98;4023616;87;21024;-85
2022/10/05 20:05:27;;;;;;;33.73;18.73;;;;;;;10.29;98.76;99634.59;4026592;87;21019;-85
2022/10/05 20:11:30;;;;;;;25.88;17.15;;;;;;;10.18;98.79;99639.62;4026521;87;20971;-86
2022/10/05 20:24:11;;;;;;;28.47;16.25;;;;;;;10.10;99.51;99637.28;4048727;87;21061;-86
2022/10/05 20:30:18;;;;;;;32.98;19.80;;;;;;;9.91;98.75;99650.09;4023887;88;21047;-87
2022/10/05 20:36:20;;;;;;;34.30;19.85;;;;;;;9.78;99.43;99654.86;3942408;89;21034;-85
2022/10/05 20:42:22;;;;;;;27.60;17.42;;;;;;;9.73;99.62;99656.48;3880373;91;21713;-86
2022/10/05 20:48:25;;;;;;;27.73;16.42;;;;;;;9.69;99.79;99658.91;3896423;90;21064;-86
2022/10/05 20:54:27;;;;;;;25.12;16.77;;;;;;;9.57;100.00;99650.22;3896560;89;21136;-86
2022/10/05 21:01:14;;;;;;;26.90;14.60;;;;;;;9.50;100.00;99645.39;3898184;89;21107;-87
2022/10/05 21:06:33;;;;;;;25.90;14.85;;;;;;;9.46;100.00;99647.78;3919722;88;21089;-86
2022/10/05 21:12:36;;;;;;;23.77;14.30;;;;;;;9.37;100.00;99662.19;4024467;87;21662;-88
2022/10/05 21:18:39;;;;;;;24.52;14.80;;;;;;;9.31;100.00;99652.67;4023202;87;21035;-86
2022/10/05 21:24:40;;;;;;;25.85;12.03;;;;;;;9.25;100.00;99647.25;4021319;87;21099;-87
2022/10/05 21:30:43;;;;;;;27.90;14.10;;;;;;;9.09;100.00;99648.59;4020930;87;21216;-86
2022/10/05 21:36:45;;;;;;;17.17;12.33;;;;;;;8.98;100.00;99647.50;4023936;87;21042;-85
2022/10/05 21:42:46;;;;;;;27.37;16.60;;;;;;;8.81;100.00;99646.44;4020688;87;21062;-87
2022/10/05 21:48:48;;;;;;;27.62;17.85;;;;;;;8.71;100.00;99636.00;4007785;87;21040;-86
2022/10/05 21:54:50;;;;;;;30.25;17.87;;;;;;;8.66;100.00;99638.97;4010167;87;21090;-86
2022/10/05 22:00:52;;;;;;;27.98;14.68;;;;;;;8.64;100.00;99638.55;4011766;87;21012;-86
2022/10/05 22:06:55;;;;;;;25.10;16.67;;;;;;;8.72;100.00;99636.80;4009160;87;21158;-86
2022/10/05 22:13:03;;;;;;;31.20;15.38;;;;;;;8.74;100.00;99629.06;3995719;88;21532;-85
2022/10/05 22:19:14;;;;;;;24.75;14.55;;;;;;;8.79;100.00;99630.97;4016102;87;21540;-86
2022/10/05 22:25:16;;;;;;;24.45;15.53;;;;;;;8.81;100.00;99627.33;4008907;87;21130;-86
2022/10/05 22:31:19;;;;;;;26.33;15.32;;;;;;;8.71;100.00;99625.64;4036749;87;20995;-86
2022/10/05 22:37:22;;;;;;;28.47;16.15;;;;;;;8.64;100.00;99628.98;4012075;87;22041;-86
2022/10/05 22:57:05;;;;;;;25.37;14.68;;;;;;;8.35;100.00;99647.61;4014200;87;21031;-86
2022/10/05 23:03:06;;;;;;;26.45;14.60;;;;;;;8.24;100.00;99646.48;4029161;87;21046;-86
2022/10/05 23:09:08;;;;;;;22.85;13.68;;;;;;;8.14;100.00;99649.64;4033757;87;21030;-85
2022/10/05 23:15:10;;;;;;;21.33;13.18;;;;;;;7.99;100.00;99653.29;4028539;87;21037;-86
2022/10/05 23:21:11;;;;;;;22.73;15.18;;;;;;;7.91;100.00;99653.39;4031004;87;21051;-86
2022/10/05 23:27:16;;;;;;;25.37;13.93;;;;;;;7.84;100.00;99666.81;4030059;87;21078;-86
2022/10/05 23:33:21;;;;;;;23.85;13.32;;;;;;;7.70;100.00;99672.61;4028227;87;21038;-86
2022/10/05 23:39:22;;;;;;;19.02;11.55;;;;;;;7.57;100.00;99683.81;4025218;87;22018;-86
2022/10/05 23:45:24;;;;;;;21.40;12.88;;;;;;;7.44;100.00;99684.91;4026867;87;21059;-86
2022/10/05 23:51:25;;;;;;;23.62;13.18;;;;;;;7.35;100.00;99693.75;4047142;87;21993;-85
2022/10/05 23:57:27;;;;;;;20.08;12.20;;;;;;;7.29;100.00;99697.27;4039567;87;21846;-85
